sensor_id;sensor_type;location;lat;lon;timestamp;P1;durP1;ratioP1;P2;durP2;ratioP2
68140;SDS011;54941;52.220;104.306;2022-09-09T00:01:00;10.57;;;3.60;;
68140;SDS011;54941;52.220;104.306;2022-09-09T00:03:53;9.75;;;3.55;;
68140;SDS011;54941;52.220;104.306;2022-09-09T00:06:43;8.32;;;3.10;;
68140;SDS011;54941;52.220;104.306;2022-09-09T00:09:35;8.13;;;3.45;;
68140;SDS011;54941;52.220;104.306;2022-09-09T00:12:34;6.30;;;2.92;;
68140;SDS011;54941;52.220;104.306;2022-09-09T00:15:25;9.15;;;3.25;;
68140;SDS011;54941;52.220;104.306;2022-09-09T00:18:16;7.03;;;3.08;;
68140;SDS011;54941;52.220;104.306;2022-09-09T00:21:10;11.55;;;3.10;;
68140;SDS011;54941;52.220;104.306;2022-09-09T00:23:57;10.90;;;3.25;;
68140;SDS011;54941;52.220;104.306;2022-09-09T00:26:43;12.80;;;3.22;;
68140;SDS011;54941;52.220;104.306;2022-09-09T00:29:36;9.32;;;3.60;;
68140;SDS011;54941;52.220;104.306;2022-09-09T00:32:28;12.15;;;3.53;;
68140;SDS011;54941;52.220;104.306;2022-09-09T00:35:16;8.60;;;3.60;;
68140;SDS011;54941;52.220;104.306;2022-09-09T00:38:09;10.93;;;3.60;;
68140;SDS011;54941;52.220;104.306;2022-09-09T00:40:58;11.18;;;3.42;;
68140;SDS011;54941;52.220;104.306;2022-09-09T00:43:53;9.98;;;3.33;;
68140;SDS011;54941;52.220;104.306;2022-09-09T00:46:47;9.52;;;3.53;;
68140;SDS011;54941;52.220;104.306;2022-09-09T00:49:43;8.15;;;3.58;;
68140;SDS011;54941;52.220;104.306;2022-09-09T00:52:37;14.50;;;5.40;;
68140;SDS011;54941;52.220;104.306;2022-09-09T00:55:33;18.65;;;5.00;;
68140;SDS011;54941;52.220;104.306;2022-09-09T00:58:24;15.80;;;6.22;;
68140;SDS011;54941;52.220;104.306;2022-09-09T01:01:10;19.10;;;6.30;;
68140;SDS011;54941;52.220;104.306;2022-09-09T01:03:58;11.93;;;5.25;;
68140;SDS011;54941;52.220;104.306;2022-09-09T01:06:43;16.70;;;6.13;;
68140;SDS011;54941;52.220;104.306;2022-09-09T01:09:37;15.70;;;6.13;;
68140;SDS011;54941;52.220;104.306;2022-09-09T01:12:36;17.60;;;6.18;;
68140;SDS011;54941;52.220;104.306;2022-09-09T01:15:26;15.48;;;6.43;;
68140;SDS011;54941;52.220;104.306;2022-09-09T01:18:15;18.15;;;5.95;;
68140;SDS011;54941;52.220;104.306;2022-09-09T01:21:07;18.10;;;6.75;;
68140;SDS011;54941;52.220;104.306;2022-09-09T01:24:07;18.58;;;6.38;;
68140;SDS011;54941;52.220;104.306;2022-09-09T01:27:03;15.55;;;7.72;;
68140;SDS011;54941;52.220;104.306;2022-09-09T01:29:50;14.73;;;7.18;;
68140;SDS011;54941;52.220;104.306;2022-09-09T01:32:40;16.50;;;7.32;;
68140;SDS011;54941;52.220;104.306;2022-09-09T01:35:29;20.88;;;7.35;;
68140;SDS011;54941;52.220;104.306;2022-09-09T01:38:21;17.58;;;6.70;;
68140;SDS011;54941;52.220;104.306;2022-09-09T01:41:08;12.98;;;6.57;;
68140;SDS011;54941;52.220;104.306;2022-09-09T01:43:54;20.08;;;8.52;;
68140;SDS011;54941;52.220;104.306;2022-09-09T01:46:40;17.25;;;6.18;;
68140;SDS011;54941;52.220;104.306;2022-09-09T01:49:25;16.85;;;8.25;;
68140;SDS011;54941;52.220;104.306;2022-09-09T01:52:10;15.10;;;6.68;;
68140;SDS011;54941;52.220;104.306;2022-09-09T01:54:55;17.10;;;7.97;;
68140;SDS011;54941;52.220;104.306;2022-09-09T01:57:42;16.35;;;7.50;;
68140;SDS011;54941;52.220;104.306;2022-09-09T02:00:31;14.70;;;7.38;;
68140;SDS011;54941;52.220;104.306;2022-09-09T02:03:20;14.93;;;5.18;;
68140;SDS011;54941;52.220;104.306;2022-09-09T02:06:12;8.88;;;4.55;;
68140;SDS011;54941;52.220;104.306;2022-09-09T02:09:06;15.75;;;6.30;;
68140;SDS011;54941;52.220;104.306;2022-09-09T02:11:55;12.07;;;6.50;;
68140;SDS011;54941;52.220;104.306;2022-09-09T02:14:47;13.25;;;6.88;;
68140;SDS011;54941;52.220;104.306;2022-09-09T02:17:37;22.00;;;8.05;;
68140;SDS011;54941;52.220;104.306;2022-09-09T02:20:25;16.60;;;7.20;;
68140;SDS011;54941;52.220;104.306;2022-09-09T02:23:12;16.65;;;6.68;;
68140;SDS011;54941;52.220;104.306;2022-09-09T02:25:59;14.82;;;7.35;;
68140;SDS011;54941;52.220;104.306;2022-09-09T02:28:46;13.18;;;7.70;;
68140;SDS011;54941;52.220;104.306;2022-09-09T02:31:32;13.30;;;5.88;;
68140;SDS011;54941;52.220;104.306;2022-09-09T02:34:22;13.77;;;5.50;;
68140;SDS011;54941;52.220;104.306;2022-09-09T02:37:09;10.50;;;5.45;;
68140;SDS011;54941;52.220;104.306;2022-09-09T02:39:59;15.02;;;5.30;;
68140;SDS011;54941;52.220;104.306;2022-09-09T02:42:48;10.07;;;4.40;;
68140;SDS011;54941;52.220;104.306;2022-09-09T02:45:36;9.18;;;4.70;;
68140;SDS011;54941;52.220;104.306;2022-09-09T02:48:29;6.30;;;3.78;;
68140;SDS011;54941;52.220;104.306;2022-09-09T02:51:22;6.93;;;4.30;;
68140;SDS011;54941;52.220;104.306;2022-09-09T02:54:15;9.13;;;3.60;;
68140;SDS011;54941;52.220;104.306;2022-09-09T02:57:12;7.85;;;4.53;;
68140;SDS011;54941;52.220;104.306;2022-09-09T03:00:02;9.20;;;4.22;;
68140;SDS011;54941;52.220;104.306;2022-09-09T03:05:32;11.40;;;5.70;;
68140;SDS011;54941;52.220;104.306;2022-09-09T03:08:19;11.55;;;6.10;;
68140;SDS011;54941;52.220;104.306;2022-09-09T03:11:04;12.75;;;6.00;;
68140;SDS011;54941;52.220;104.306;2022-09-09T03:13:49;11.10;;;5.85;;
68140;SDS011;54941;52.220;104.306;2022-09-09T03:16:34;15.05;;;6.25;;
68140;SDS011;54941;52.220;104.306;2022-09-09T03:19:19;12.48;;;6.00;;
68140;SDS011;54941;52.220;104.306;2022-09-09T03:22:04;17.08;;;6.40;;
68140;SDS011;54941;52.220;104.306;2022-09-09T03:24:51;16.25;;;6.82;;
68140;SDS011;54941;52.220;104.306;2022-09-09T03:27:36;11.27;;;5.68;;
68140;SDS011;54941;52.220;104.306;2022-09-09T03:30:21;10.10;;;6.18;;
68140;SDS011;54941;52.220;104.306;2022-09-09T03:33:07;11.85;;;6.30;;
68140;SDS011;54941;52.220;104.306;2022-09-09T03:35:52;13.43;;;6.90;;
68140;SDS011;54941;52.220;104.306;2022-09-09T03:38:37;13.13;;;6.05;;
68140;SDS011;54941;52.220;104.306;2022-09-09T03:41:24;12.52;;;6.93;;
68140;SDS011;54941;52.220;104.306;2022-09-09T03:44:09;12.02;;;5.57;;
68140;SDS011;54941;52.220;104.306;2022-09-09T03:46:54;15.30;;;6.32;;
68140;SDS011;54941;52.220;104.306;2022-09-09T03:49:39;13.35;;;5.97;;
68140;SDS011;54941;52.220;104.306;2022-09-09T03:52:24;11.68;;;5.35;;
68140;SDS011;54941;52.220;104.306;2022-09-09T03:55:09;12.50;;;5.68;;
68140;SDS011;54941;52.220;104.306;2022-09-09T03:57:55;10.75;;;5.72;;
68140;SDS011;54941;52.220;104.306;2022-09-09T04:00:41;10.45;;;5.35;;
68140;SDS011;54941;52.220;104.306;2022-09-09T04:03:26;11.55;;;5.60;;
68140;SDS011;54941;52.220;104.306;2022-09-09T04:06:12;12.48;;;5.40;;
68140;SDS011;54941;52.220;104.306;2022-09-09T04:08:57;11.57;;;5.10;;
68140;SDS011;54941;52.220;104.306;2022-09-09T04:11:42;11.85;;;5.22;;
68140;SDS011;54941;52.220;104.306;2022-09-09T04:14:29;11.52;;;4.85;;
68140;SDS011;54941;52.220;104.306;2022-09-09T04:17:14;15.35;;;5.53;;
68140;SDS011;54941;52.220;104.306;2022-09-09T04:19:59;14.00;;;5.47;;
68140;SDS011;54941;52.220;104.306;2022-09-09T04:22:43;17.08;;;5.50;;
68140;SDS011;54941;52.220;104.306;2022-09-09T04:25:29;12.25;;;4.82;;
68140;SDS011;54941;52.220;104.306;2022-09-09T04:28:14;13.27;;;4.80;;
68140;SDS011;54941;52.220;104.306;2022-09-09T04:31:10;11.82;;;4.90;;
68140;SDS011;54941;52.220;104.306;2022-09-09T04:33:59;13.25;;;4.72;;
68140;SDS011;54941;52.220;104.306;2022-09-09T04:36:47;15.85;;;4.55;;
68140;SDS011;54941;52.220;104.306;2022-09-09T04:39:32;12.70;;;4.90;;
68140;SDS011;54941;52.220;104.306;2022-09-09T04:42:17;12.63;;;4.97;;
68140;SDS011;54941;52.220;104.306;2022-09-09T04:45:02;10.40;;;4.55;;
68140;SDS011;54941;52.220;104.306;2022-09-09T04:47:54;12.48;;;4.90;;
68140;SDS011;54941;52.220;104.306;2022-09-09T04:50:38;12.73;;;5.30;;
68140;SDS011;54941;52.220;104.306;2022-09-09T04:53:24;10.13;;;5.00;;
68140;SDS011;54941;52.220;104.306;2022-09-09T04:56:10;14.07;;;5.40;;
68140;SDS011;54941;52.220;104.306;2022-09-09T04:58:57;13.68;;;5.40;;
68140;SDS011;54941;52.220;104.306;2022-09-09T05:01:42;11.52;;;5.80;;
68140;SDS011;54941;52.220;104.306;2022-09-09T05:04:28;13.15;;;4.60;;
68140;SDS011;54941;52.220;104.306;2022-09-09T05:07:14;9.80;;;5.45;;
68140;SDS011;54941;52.220;104.306;2022-09-09T05:10:02;8.85;;;4.90;;
68140;SDS011;54941;52.220;104.306;2022-09-09T05:12:51;10.07;;;4.65;;
68140;SDS011;54941;52.220;104.306;2022-09-09T05:15:42;11.77;;;5.47;;
68140;SDS011;54941;52.220;104.306;2022-09-09T05:18:35;11.85;;;4.97;;
68140;SDS011;54941;52.220;104.306;2022-09-09T05:21:22;11.48;;;4.65;;
68140;SDS011;54941;52.220;104.306;2022-09-09T05:24:08;10.00;;;4.30;;
68140;SDS011;54941;52.220;104.306;2022-09-09T05:26:53;10.73;;;4.65;;
68140;SDS011;54941;52.220;104.306;2022-09-09T05:29:39;9.15;;;3.85;;
68140;SDS011;54941;52.220;104.306;2022-09-09T05:32:24;7.97;;;4.18;;
68140;SDS011;54941;52.220;104.306;2022-09-09T05:35:09;10.48;;;3.80;;
68140;SDS011;54941;52.220;104.306;2022-09-09T05:37:59;11.88;;;3.80;;
68140;SDS011;54941;52.220;104.306;2022-09-09T05:40:47;8.40;;;3.90;;
68140;SDS011;54941;52.220;104.306;2022-09-09T05:43:32;9.13;;;4.10;;
68140;SDS011;54941;52.220;104.306;2022-09-09T05:46:18;13.10;;;3.90;;
68140;SDS011;54941;52.220;104.306;2022-09-09T05:49:04;10.10;;;3.78;;
68140;SDS011;54941;52.220;104.306;2022-09-09T05:51:49;12.10;;;4.43;;
68140;SDS011;54941;52.220;104.306;2022-09-09T05:54:35;12.05;;;4.70;;
68140;SDS011;54941;52.220;104.306;2022-09-09T05:57:20;9.13;;;4.70;;
68140;SDS011;54941;52.220;104.306;2022-09-09T06:00:06;9.30;;;3.95;;
68140;SDS011;54941;52.220;104.306;2022-09-09T06:02:52;9.27;;;4.05;;
68140;SDS011;54941;52.220;104.306;2022-09-09T06:05:37;8.25;;;4.53;;
68140;SDS011;54941;52.220;104.306;2022-09-09T06:08:22;6.97;;;4.32;;
68140;SDS011;54941;52.220;104.306;2022-09-09T06:11:09;9.48;;;4.22;;
68140;SDS011;54941;52.220;104.306;2022-09-09T06:13:55;9.40;;;4.20;;
68140;SDS011;54941;52.220;104.306;2022-09-09T06:16:43;8.77;;;3.55;;
68140;SDS011;54941;52.220;104.306;2022-09-09T06:19:28;10.27;;;3.90;;
68140;SDS011;54941;52.220;104.306;2022-09-09T06:22:13;7.57;;;4.03;;
68140;SDS011;54941;52.220;104.306;2022-09-09T06:24:58;9.13;;;3.83;;
68140;SDS011;54941;52.220;104.306;2022-09-09T06:27:49;8.45;;;3.42;;
68140;SDS011;54941;52.220;104.306;2022-09-09T06:30:38;5.90;;;3.63;;
68140;SDS011;54941;52.220;104.306;2022-09-09T06:33:23;7.35;;;3.67;;
68140;SDS011;54941;52.220;104.306;2022-09-09T06:36:10;5.53;;;3.33;;
68140;SDS011;54941;52.220;104.306;2022-09-09T06:38:56;5.70;;;3.72;;
68140;SDS011;54941;52.220;104.306;2022-09-09T06:41:42;5.93;;;3.40;;
68140;SDS011;54941;52.220;104.306;2022-09-09T06:44:28;5.05;;;3.60;;
68140;SDS011;54941;52.220;104.306;2022-09-09T06:47:13;7.85;;;3.42;;
68140;SDS011;54941;52.220;104.306;2022-09-09T06:50:01;5.00;;;3.42;;
68140;SDS011;54941;52.220;104.306;2022-09-09T06:52:47;8.10;;;4.22;;
68140;SDS011;54941;52.220;104.306;2022-09-09T06:55:32;6.78;;;3.63;;
68140;SDS011;54941;52.220;104.306;2022-09-09T06:58:17;5.20;;;3.42;;
68140;SDS011;54941;52.220;104.306;2022-09-09T07:01:04;5.68;;;3.70;;
68140;SDS011;54941;52.220;104.306;2022-09-09T07:03:50;8.45;;;4.13;;
68140;SDS011;54941;52.220;104.306;2022-09-09T07:06:36;5.43;;;3.88;;
68140;SDS011;54941;52.220;104.306;2022-09-09T07:09:22;5.32;;;4.43;;
68140;SDS011;54941;52.220;104.306;2022-09-09T07:12:07;8.25;;;3.78;;
68140;SDS011;54941;52.220;104.306;2022-09-09T07:14:52;7.85;;;3.70;;
68140;SDS011;54941;52.220;104.306;2022-09-09T07:17:39;6.65;;;3.63;;
68140;SDS011;54941;52.220;104.306;2022-09-09T07:20:24;6.97;;;3.80;;
68140;SDS011;54941;52.220;104.306;2022-09-09T07:23:09;7.93;;;3.97;;
68140;SDS011;54941;52.220;104.306;2022-09-09T07:25:54;10.93;;;4.38;;
68140;SDS011;54941;52.220;104.306;2022-09-09T07:28:39;7.15;;;4.60;;
68140;SDS011;54941;52.220;104.306;2022-09-09T07:31:25;6.57;;;4.25;;
68140;SDS011;54941;52.220;104.306;2022-09-09T07:34:14;7.47;;;3.45;;
68140;SDS011;54941;52.220;104.306;2022-09-09T07:36:59;8.25;;;4.75;;
68140;SDS011;54941;52.220;104.306;2022-09-09T07:39:44;9.57;;;3.80;;
68140;SDS011;54941;52.220;104.306;2022-09-09T07:42:29;7.18;;;3.45;;
68140;SDS011;54941;52.220;104.306;2022-09-09T07:45:14;6.53;;;3.75;;
68140;SDS011;54941;52.220;104.306;2022-09-09T07:48:01;9.77;;;4.03;;
68140;SDS011;54941;52.220;104.306;2022-09-09T07:50:48;6.50;;;4.15;;
68140;SDS011;54941;52.220;104.306;2022-09-09T07:53:33;7.57;;;4.25;;
68140;SDS011;54941;52.220;104.306;2022-09-09T07:56:18;6.85;;;3.70;;
68140;SDS011;54941;52.220;104.306;2022-09-09T07:59:04;9.52;;;4.38;;
68140;SDS011;54941;52.220;104.306;2022-09-09T08:01:50;9.02;;;3.88;;
68140;SDS011;54941;52.220;104.306;2022-09-09T08:04:35;9.18;;;3.75;;
68140;SDS011;54941;52.220;104.306;2022-09-09T08:07:22;10.23;;;4.03;;
68140;SDS011;54941;52.220;104.306;2022-09-09T08:10:07;6.28;;;4.10;;
68140;SDS011;54941;52.220;104.306;2022-09-09T08:12:52;8.55;;;4.72;;
68140;SDS011;54941;52.220;104.306;2022-09-09T08:15:37;7.53;;;4.55;;
68140;SDS011;54941;52.220;104.306;2022-09-09T08:18:22;7.32;;;3.92;;
68140;SDS011;54941;52.220;104.306;2022-09-09T08:21:08;7.43;;;3.60;;
68140;SDS011;54941;52.220;104.306;2022-09-09T08:23:56;6.05;;;3.53;;
68140;SDS011;54941;52.220;104.306;2022-09-09T08:26:43;7.50;;;4.15;;
68140;SDS011;54941;52.220;104.306;2022-09-09T08:29:29;12.13;;;4.30;;
68140;SDS011;54941;52.220;104.306;2022-09-09T08:32:14;8.48;;;3.53;;
68140;SDS011;54941;52.220;104.306;2022-09-09T08:34:59;12.57;;;3.80;;
68140;SDS011;54941;52.220;104.306;2022-09-09T08:37:44;7.43;;;3.25;;
68140;SDS011;54941;52.220;104.306;2022-09-09T08:40:32;6.82;;;3.08;;
68140;SDS011;54941;52.220;104.306;2022-09-09T08:43:23;10.43;;;3.17;;
68140;SDS011;54941;52.220;104.306;2022-09-09T08:46:09;8.57;;;3.42;;
68140;SDS011;54941;52.220;104.306;2022-09-09T08:49:01;13.73;;;4.22;;
68140;SDS011;54941;52.220;104.306;2022-09-09T08:51:51;10.07;;;3.47;;
68140;SDS011;54941;52.220;104.306;2022-09-09T08:54:40;10.30;;;3.83;;
68140;SDS011;54941;52.220;104.306;2022-09-09T08:57:26;16.92;;;4.53;;
68140;SDS011;54941;52.220;104.306;2022-09-09T09:00:13;11.15;;;4.15;;
68140;SDS011;54941;52.220;104.306;2022-09-09T09:02:59;12.75;;;4.05;;
68140;SDS011;54941;52.220;104.306;2022-09-09T09:08:43;14.82;;;3.90;;
68140;SDS011;54941;52.220;104.306;2022-09-09T09:11:36;13.98;;;3.25;;
68140;SDS011;54941;52.220;104.306;2022-09-09T09:14:25;13.77;;;3.67;;
68140;SDS011;54941;52.220;104.306;2022-09-09T09:17:11;8.75;;;3.40;;
68140;SDS011;54941;52.220;104.306;2022-09-09T09:22:45;10.32;;;3.20;;
68140;SDS011;54941;52.220;104.306;2022-09-09T09:25:34;10.00;;;2.63;;
68140;SDS011;54941;52.220;104.306;2022-09-09T09:28:23;13.00;;;3.25;;
68140;SDS011;54941;52.220;104.306;2022-09-09T09:31:11;10.10;;;3.50;;
68140;SDS011;54941;52.220;104.306;2022-09-09T09:33:56;12.52;;;3.40;;
68140;SDS011;54941;52.220;104.306;2022-09-09T09:36:42;9.60;;;3.50;;
68140;SDS011;54941;52.220;104.306;2022-09-09T09:39:29;10.63;;;3.03;;
68140;SDS011;54941;52.220;104.306;2022-09-09T09:42:16;15.57;;;4.00;;
68140;SDS011;54941;52.220;104.306;2022-09-09T09:45:07;7.47;;;2.60;;
68140;SDS011;54941;52.220;104.306;2022-09-09T09:47:59;11.70;;;3.20;;
68140;SDS011;54941;52.220;104.306;2022-09-09T09:50:49;7.43;;;2.28;;
68140;SDS011;54941;52.220;104.306;2022-09-09T09:53:35;7.57;;;2.40;;
68140;SDS011;54941;52.220;104.306;2022-09-09T09:56:26;6.70;;;2.50;;
68140;SDS011;54941;52.220;104.306;2022-09-09T09:59:22;8.95;;;2.75;;
68140;SDS011;54941;52.220;104.306;2022-09-09T10:02:18;9.50;;;2.83;;
68140;SDS011;54941;52.220;104.306;2022-09-09T10:05:09;7.93;;;2.72;;
68140;SDS011;54941;52.220;104.306;2022-09-09T10:08:03;7.95;;;2.55;;
68140;SDS011;54941;52.220;104.306;2022-09-09T10:11:06;9.48;;;3.15;;
68140;SDS011;54941;52.220;104.306;2022-09-09T10:14:05;10.52;;;3.00;;
68140;SDS011;54941;52.220;104.306;2022-09-09T10:17:06;8.00;;;2.30;;
68140;SDS011;54941;52.220;104.306;2022-09-09T10:20:07;10.32;;;2.30;;
68140;SDS011;54941;52.220;104.306;2022-09-09T10:23:04;7.72;;;2.10;;
68140;SDS011;54941;52.220;104.306;2022-09-09T10:26:02;7.13;;;2.33;;
68140;SDS011;54941;52.220;104.306;2022-09-09T10:29:03;13.20;;;2.85;;
68140;SDS011;54941;52.220;104.306;2022-09-09T10:31:59;13.88;;;3.13;;
68140;SDS011;54941;52.220;104.306;2022-09-09T10:34:56;11.93;;;4.38;;
68140;SDS011;54941;52.220;104.306;2022-09-09T10:37:48;14.98;;;4.20;;
68140;SDS011;54941;52.220;104.306;2022-09-09T10:41:04;11.68;;;4.35;;
68140;SDS011;54941;52.220;104.306;2022-09-09T10:44:01;17.73;;;5.78;;
68140;SDS011;54941;52.220;104.306;2022-09-09T10:47:04;19.38;;;5.47;;
68140;SDS011;54941;52.220;104.306;2022-09-09T10:53:28;20.33;;;5.55;;
68140;SDS011;54941;52.220;104.306;2022-09-09T10:56:20;18.15;;;5.57;;
68140;SDS011;54941;52.220;104.306;2022-09-09T10:59:07;15.05;;;4.88;;
68140;SDS011;54941;52.220;104.306;2022-09-09T11:01:58;21.00;;;5.95;;
68140;SDS011;54941;52.220;104.306;2022-09-09T11:04:50;18.52;;;5.30;;
68140;SDS011;54941;52.220;104.306;2022-09-09T11:07:41;19.60;;;5.63;;
68140;SDS011;54941;52.220;104.306;2022-09-09T11:10:34;18.90;;;5.47;;
68140;SDS011;54941;52.220;104.306;2022-09-09T11:13:26;19.85;;;4.93;;
68140;SDS011;54941;52.220;104.306;2022-09-09T11:16:21;18.20;;;4.95;;
68140;SDS011;54941;52.220;104.306;2022-09-09T11:19:14;18.92;;;6.57;;
68140;SDS011;54941;52.220;104.306;2022-09-09T11:22:05;17.48;;;5.65;;
68140;SDS011;54941;52.220;104.306;2022-09-09T11:24:59;24.08;;;5.47;;
68140;SDS011;54941;52.220;104.306;2022-09-09T11:27:58;16.98;;;4.95;;
68140;SDS011;54941;52.220;104.306;2022-09-09T11:31:13;14.50;;;4.10;;
68140;SDS011;54941;52.220;104.306;2022-09-09T11:34:26;14.82;;;4.30;;
68140;SDS011;54941;52.220;104.306;2022-09-09T11:37:23;17.38;;;5.25;;
68140;SDS011;54941;52.220;104.306;2022-09-09T11:40:31;12.00;;;4.30;;
68140;SDS011;54941;52.220;104.306;2022-09-09T11:43:25;17.92;;;4.32;;
68140;SDS011;54941;52.220;104.306;2022-09-09T11:46:14;18.17;;;4.18;;
68140;SDS011;54941;52.220;104.306;2022-09-09T11:49:02;16.27;;;4.18;;
68140;SDS011;54941;52.220;104.306;2022-09-09T11:51:48;15.70;;;3.85;;
68140;SDS011;54941;52.220;104.306;2022-09-09T11:54:33;7.82;;;3.38;;
68140;SDS011;54941;52.220;104.306;2022-09-09T11:57:32;9.68;;;3.78;;
68140;SDS011;54941;52.220;104.306;2022-09-09T12:00:35;13.85;;;4.50;;
68140;SDS011;54941;52.220;104.306;2022-09-09T12:03:31;9.23;;;3.65;;
68140;SDS011;54941;52.220;104.306;2022-09-09T12:06:27;8.75;;;3.78;;
68140;SDS011;54941;52.220;104.306;2022-09-09T12:09:17;17.80;;;3.95;;
68140;SDS011;54941;52.220;104.306;2022-09-09T12:12:07;13.95;;;3.80;;
68140;SDS011;54941;52.220;104.306;2022-09-09T12:15:22;11.40;;;3.72;;
68140;SDS011;54941;52.220;104.306;2022-09-09T12:18:14;11.90;;;4.72;;
68140;SDS011;54941;52.220;104.306;2022-09-09T12:21:06;14.48;;;4.10;;
68140;SDS011;54941;52.220;104.306;2022-09-09T12:24:03;8.93;;;4.32;;
68140;SDS011;54941;52.220;104.306;2022-09-09T12:26:54;14.18;;;4.45;;
68140;SDS011;54941;52.220;104.306;2022-09-09T12:29:45;8.80;;;4.07;;
68140;SDS011;54941;52.220;104.306;2022-09-09T12:32:39;11.82;;;4.25;;
68140;SDS011;54941;52.220;104.306;2022-09-09T12:35:26;10.20;;;4.63;;
68140;SDS011;54941;52.220;104.306;2022-09-09T12:38:13;15.35;;;4.53;;
68140;SDS011;54941;52.220;104.306;2022-09-09T12:41:05;9.80;;;4.13;;
68140;SDS011;54941;52.220;104.306;2022-09-09T12:44:03;13.27;;;4.40;;
68140;SDS011;54941;52.220;104.306;2022-09-09T12:46:49;13.98;;;4.22;;
68140;SDS011;54941;52.220;104.306;2022-09-09T12:49:36;14.48;;;5.25;;
68140;SDS011;54941;52.220;104.306;2022-09-09T12:52:26;14.55;;;5.18;;
68140;SDS011;54941;52.220;104.306;2022-09-09T12:55:16;14.73;;;4.63;;
68140;SDS011;54941;52.220;104.306;2022-09-09T12:58:03;15.15;;;5.53;;
68140;SDS011;54941;52.220;104.306;2022-09-09T13:00:53;14.70;;;5.10;;
68140;SDS011;54941;52.220;104.306;2022-09-09T13:03:41;14.15;;;4.78;;
68140;SDS011;54941;52.220;104.306;2022-09-09T13:06:28;12.35;;;5.00;;
68140;SDS011;54941;52.220;104.306;2022-09-09T13:09:17;13.52;;;4.22;;
68140;SDS011;54941;52.220;104.306;2022-09-09T13:12:03;7.95;;;3.90;;
68140;SDS011;54941;52.220;104.306;2022-09-09T13:14:52;8.13;;;4.38;;
68140;SDS011;54941;52.220;104.306;2022-09-09T13:17:40;6.10;;;3.13;;
68140;SDS011;54941;52.220;104.306;2022-09-09T13:20:28;7.45;;;4.10;;
68140;SDS011;54941;52.220;104.306;2022-09-09T13:23:14;7.55;;;3.17;;
68140;SDS011;54941;52.220;104.306;2022-09-09T13:26:04;7.63;;;3.13;;
68140;SDS011;54941;52.220;104.306;2022-09-09T13:28:50;7.10;;;3.75;;
68140;SDS011;54941;52.220;104.306;2022-09-09T13:31:36;8.60;;;3.13;;
68140;SDS011;54941;52.220;104.306;2022-09-09T13:34:28;9.15;;;3.63;;
68140;SDS011;54941;52.220;104.306;2022-09-09T13:37:17;9.18;;;4.03;;
68140;SDS011;54941;52.220;104.306;2022-09-09T13:40:12;12.68;;;3.75;;
68140;SDS011;54941;52.220;104.306;2022-09-09T13:43:03;10.43;;;4.25;;
68140;SDS011;54941;52.220;104.306;2022-09-09T13:45:52;8.23;;;3.67;;
68140;SDS011;54941;52.220;104.306;2022-09-09T13:48:40;8.95;;;4.07;;
68140;SDS011;54941;52.220;104.306;2022-09-09T13:51:28;10.35;;;3.50;;
68140;SDS011;54941;52.220;104.306;2022-09-09T13:54:17;8.30;;;4.28;;
68140;SDS011;54941;52.220;104.306;2022-09-09T13:57:03;10.63;;;4.07;;
68140;SDS011;54941;52.220;104.306;2022-09-09T13:59:52;8.75;;;4.28;;
68140;SDS011;54941;52.220;104.306;2022-09-09T14:02:41;11.43;;;4.55;;
68140;SDS011;54941;52.220;104.306;2022-09-09T14:05:26;9.10;;;4.90;;
68140;SDS011;54941;52.220;104.306;2022-09-09T14:08:22;10.80;;;4.63;;
68140;SDS011;54941;52.220;104.306;2022-09-09T14:11:09;14.18;;;4.40;;
68140;SDS011;54941;52.220;104.306;2022-09-09T14:13:57;9.88;;;4.55;;
68140;SDS011;54941;52.220;104.306;2022-09-09T14:16:43;9.75;;;4.65;;
68140;SDS011;54941;52.220;104.306;2022-09-09T14:19:31;10.15;;;5.25;;
68140;SDS011;54941;52.220;104.306;2022-09-09T14:22:16;10.02;;;4.93;;
68140;SDS011;54941;52.220;104.306;2022-09-09T14:25:01;10.07;;;5.47;;
68140;SDS011;54941;52.220;104.306;2022-09-09T14:27:50;9.93;;;4.82;;
68140;SDS011;54941;52.220;104.306;2022-09-09T14:30:40;9.05;;;5.10;;
68140;SDS011;54941;52.220;104.306;2022-09-09T14:33:27;8.70;;;4.18;;
68140;SDS011;54941;52.220;104.306;2022-09-09T14:36:12;12.07;;;5.55;;
68140;SDS011;54941;52.220;104.306;2022-09-09T14:38:57;11.02;;;6.30;;
68140;SDS011;54941;52.220;104.306;2022-09-09T14:41:43;8.82;;;4.65;;
68140;SDS011;54941;52.220;104.306;2022-09-09T14:44:28;7.45;;;4.20;;
68140;SDS011;54941;52.220;104.306;2022-09-09T14:47:16;6.40;;;3.33;;
68140;SDS011;54941;52.220;104.306;2022-09-09T14:50:02;5.20;;;3.00;;
68140;SDS011;54941;52.220;104.306;2022-09-09T14:55:34;4.85;;;2.35;;
68140;SDS011;54941;52.220;104.306;2022-09-09T14:58:21;4.55;;;3.17;;
68140;SDS011;54941;52.220;104.306;2022-09-09T15:01:07;5.07;;;2.88;;
68140;SDS011;54941;52.220;104.306;2022-09-09T15:03:54;5.35;;;3.10;;
68140;SDS011;54941;52.220;104.306;2022-09-09T15:06:41;5.30;;;3.03;;
68140;SDS011;54941;52.220;104.306;2022-09-09T15:09:26;5.68;;;2.95;;
68140;SDS011;54941;52.220;104.306;2022-09-09T15:12:11;7.22;;;3.00;;
68140;SDS011;54941;52.220;104.306;2022-09-09T15:14:56;5.85;;;2.83;;
68140;SDS011;54941;52.220;104.306;2022-09-09T15:17:43;4.93;;;3.35;;
68140;SDS011;54941;52.220;104.306;2022-09-09T15:20:30;6.70;;;3.50;;
68140;SDS011;54941;52.220;104.306;2022-09-09T15:23:16;4.80;;;3.20;;
68140;SDS011;54941;52.220;104.306;2022-09-09T15:26:01;4.93;;;3.33;;
68140;SDS011;54941;52.220;104.306;2022-09-09T15:28:47;4.88;;;3.30;;
68140;SDS011;54941;52.220;104.306;2022-09-09T15:31:33;6.10;;;3.67;;
68140;SDS011;54941;52.220;104.306;2022-09-09T15:34:17;5.15;;;3.38;;
68140;SDS011;54941;52.220;104.306;2022-09-09T15:37:03;6.32;;;2.90;;
68140;SDS011;54941;52.220;104.306;2022-09-09T15:39:53;6.28;;;2.83;;
68140;SDS011;54941;52.220;104.306;2022-09-09T15:42:38;7.20;;;3.22;;
68140;SDS011;54941;52.220;104.306;2022-09-09T15:45:28;6.57;;;3.10;;
68140;SDS011;54941;52.220;104.306;2022-09-09T15:48:13;7.00;;;4.10;;
68140;SDS011;54941;52.220;104.306;2022-09-09T15:51:01;9.10;;;3.60;;
68140;SDS011;54941;52.220;104.306;2022-09-09T15:53:47;6.93;;;3.58;;
68140;SDS011;54941;52.220;104.306;2022-09-09T15:56:33;8.50;;;4.03;;
68140;SDS011;54941;52.220;104.306;2022-09-09T15:59:24;8.57;;;4.57;;
68140;SDS011;54941;52.220;104.306;2022-09-09T16:02:10;9.20;;;3.80;;
68140;SDS011;54941;52.220;104.306;2022-09-09T16:04:55;7.72;;;4.22;;
68140;SDS011;54941;52.220;104.306;2022-09-09T16:07:42;9.45;;;4.72;;
68140;SDS011;54941;52.220;104.306;2022-09-09T16:10:27;8.27;;;4.03;;
68140;SDS011;54941;52.220;104.306;2022-09-09T16:13:13;11.23;;;5.25;;
68140;SDS011;54941;52.220;104.306;2022-09-09T16:16:01;8.48;;;4.47;;
68140;SDS011;54941;52.220;104.306;2022-09-09T16:18:47;7.25;;;3.90;;
68140;SDS011;54941;52.220;104.306;2022-09-09T16:21:34;9.32;;;4.43;;
68140;SDS011;54941;52.220;104.306;2022-09-09T16:24:20;8.18;;;4.38;;
68140;SDS011;54941;52.220;104.306;2022-09-09T16:27:05;8.77;;;4.50;;
68140;SDS011;54941;52.220;104.306;2022-09-09T16:29:52;7.03;;;4.03;;
68140;SDS011;54941;52.220;104.306;2022-09-09T16:32:37;9.27;;;4.32;;